Time;durP1;ratioP1;P1;durP2;ratioP2;P2;SDS_P1;SDS_P2;PMS_P1;PMS_P2;Temp;Humidity;BMP_temperature;BMP_pressure;BME280_temperature;BME280_humidity;BME280_pressure;Samples;Min_cycle;Max_cycle;Signal;HPM_P1;HPM_P2
2021/05/31 00:02:09;;;;;;;8.35;6.43;;;;;;;14.59;64.12;102466.63;5137047;27;20453;-40
2021/05/31 00:04:35;;;;;;;7.50;5.30;;;;;;;14.59;64.26;102466.63;5137322;27;20035;-40
2021/05/31 00:07:05;;;;;;;8.03;6.30;;;;;;;14.46;64.84;102465.81;5137213;27;20026;-40
2021/05/31 00:09:33;;;;;;;8.40;5.80;;;;;;;14.39;64.78;102463.94;5137186;27;20280;-40
2021/05/31 00:11:59;;;;;;;8.57;6.00;;;;;;;14.45;64.65;102464.97;5137013;27;20331;-40
2021/05/31 00:14:25;;;;;;;6.95;5.30;;;;;;;14.40;64.93;102454.75;5137664;27;20023;-40
2021/05/31 00:16:51;;;;;;;9.82;5.38;;;;;;;14.36;64.90;102455.41;5136980;27;20114;-40
2021/05/31 00:19:19;;;;;;;8.48;5.43;;;;;;;14.37;65.19;102457.88;5136973;27;20106;-40
2021/05/31 00:21:45;;;;;;;9.82;6.03;;;;;;;14.36;65.08;102455.41;5136558;27;20027;-40
2021/05/31 00:24:10;;;;;;;7.30;5.63;;;;;;;14.23;65.51;102452.72;5136811;27;20034;-40
2021/05/31 00:26:36;;;;;;;10.85;6.38;;;;;;;14.35;65.41;102453.72;5136566;27;20051;-40
2021/05/31 00:29:01;;;;;;;9.35;5.70;;;;;;;14.28;65.48;102447.47;5137190;27;20019;-40
2021/05/31 00:31:27;;;;;;;7.20;5.93;;;;;;;14.22;65.31;102451.06;5136732;27;20031;-40
2021/05/31 00:33:52;;;;;;;6.70;6.00;;;;;;;14.20;65.99;102453.16;5136334;27;20039;-40
2021/05/31 00:36:18;;;;;;;9.75;6.25;;;;;;;14.22;65.92;102445.63;5137130;27;20019;-40
2021/05/31 00:38:43;;;;;;;8.50;6.57;;;;;;;14.03;66.52;102442.75;5136531;27;20098;-40
2021/05/31 00:41:09;;;;;;;13.48;6.75;;;;;;;13.99;66.81;102443.41;5136549;27;20027;-40
2021/05/31 00:43:34;;;;;;;10.15;6.70;;;;;;;13.98;66.47;102441.75;5136395;27;20440;-40
2021/05/31 00:46:04;;;;;;;10.52;7.55;;;;;;;14.00;66.37;102439.63;5137299;27;20031;-40
2021/05/31 00:48:30;;;;;;;9.23;6.32;;;;;;;13.99;66.79;102441.50;5135655;27;20384;-40
2021/05/31 00:50:57;;;;;;;9.27;6.70;;;;;;;13.94;67.03;102444.03;5136359;27;20078;-40
2021/05/31 00:53:23;;;;;;;12.32;7.20;;;;;;;13.86;67.24;102436.16;5135811;27;20034;-40
2021/05/31 00:55:49;;;;;;;10.40;6.72;;;;;;;13.90;67.14;102431.91;5136704;27;20035;-40
2021/05/31 00:58:15;;;;;;;10.05;6.28;;;;;;;13.90;67.36;102435.47;5136185;27;20055;-40
2021/05/31 01:00:42;;;;;;;10.30;7.22;;;;;;;13.79;67.70;102430.72;5136436;27;20088;-40
2021/05/31 01:03:08;;;;;;;8.32;7.43;;;;;;;13.84;67.59;102432.78;5136025;27;20110;-40
2021/05/31 01:05:33;;;;;;;8.50;7.13;;;;;;;13.81;67.48;102444.94;5136908;27;20102;-40
2021/05/31 01:08:07;;;;;;;9.33;6.93;;;;;;;13.76;67.77;102436.59;5135634;27;20030;-40
2021/05/31 01:10:43;;;;;;;9.48;6.95;;;;;;;13.79;67.56;102429.88;5136182;27;20325;-40
2021/05/31 01:13:30;;;;;;;11.05;7.32;;;;;;;13.67;68.02;102431.59;5136116;27;20031;-40
2021/05/31 01:16:02;;;;;;;9.15;6.82;;;;;;;13.62;68.45;102443.94;5136069;27;20035;-40
2021/05/31 01:18:41;;;;;;;10.23;6.70;;;;;;;13.56;68.41;102441.22;5135869;27;20099;-40
2021/05/31 01:21:23;;;;;;;10.30;7.00;;;;;;;13.61;68.20;102447.69;5136286;27;20102;-40
2021/05/31 01:23:56;;;;;;;8.88;7.20;;;;;;;13.56;68.58;102442.03;5135969;27;20110;-40
2021/05/31 01:26:24;;;;;;;9.20;7.47;;;;;;;13.48;68.79;102442.28;5135684;27;20031;-40
2021/05/31 01:28:53;;;;;;;10.32;7.18;;;;;;;13.53;68.79;102441.66;5135510;27;20023;-40
2021/05/31 01:31:26;;;;;;;9.48;7.28;;;;;;;13.51;68.91;102447.28;5135802;27;20079;-40
2021/05/31 01:33:54;;;;;;;10.45;7.00;;;;;;;13.43;68.98;102441.25;5135273;27;20446;-40
2021/05/31 01:36:22;;;;;;;9.80;7.50;;;;;;;13.35;69.40;102439.59;5135755;27;20098;-40
2021/05/31 01:38:49;;;;;;;9.60;7.75;;;;;;;13.30;69.41;102439.38;5135077;27;20072;-40
2021/05/31 01:41:16;;;;;;;11.70;7.93;;;;;;;13.21;69.79;102441.44;5135425;27;20046;-40
2021/05/31 01:43:44;;;;;;;10.18;7.30;;;;;;;13.23;69.72;102441.28;5135361;27;20049;-40
2021/05/31 01:46:09;;;;;;;11.27;8.20;;;;;;;13.28;69.89;102441.47;5136140;27;20366;-40
2021/05/31 01:48:34;;;;;;;11.70;7.45;;;;;;;13.32;69.63;102437.28;5134912;27;20038;-40
2021/05/31 01:51:01;;;;;;;13.10;8.80;;;;;;;13.21;70.38;102438.72;5135512;27;20019;-40
2021/05/31 01:53:27;;;;;;;11.10;8.35;;;;;;;13.12;70.52;102440.81;5134851;27;20027;-40
2021/05/31 01:55:53;;;;;;;11.32;7.95;;;;;;;13.17;69.68;102436.63;5135084;27;20110;-40
2021/05/31 01:58:19;;;;;;;10.25;8.40;;;;;;;13.19;70.31;102434.56;5135041;27;20446;-40
2021/05/31 02:00:45;;;;;;;11.32;8.52;;;;;;;13.17;70.38;102431.19;5135294;27;20023;-40
2021/05/31 02:03:10;;;;;;;10.50;8.20;;;;;;;13.13;70.53;102437.06;5134384;27;20058;-40
2021/05/31 02:05:36;;;;;;;16.98;8.93;;;;;;;12.99;70.85;102424.53;5135387;27;20375;-40
2021/05/31 02:08:02;;;;;;;11.77;8.32;;;;;;;13.02;70.88;102431.41;5135366;27;20030;-40
2021/05/31 02:10:28;;;;;;;11.65;8.10;;;;;;;13.02;70.98;102432.25;5134823;27;20082;-40
2021/05/31 02:12:56;;;;;;;12.98;8.90;;;;;;;13.00;71.20;102431.63;5134389;27;20402;-40
2021/05/31 02:15:53;;;;;;;10.60;8.05;;;;;;;13.06;70.46;102430.78;5135082;27;20463;-40
2021/05/31 02:18:37;;;;;;;9.75;8.50;;;;;;;13.04;70.53;102426.63;5111980;28;20438;-40
2021/05/31 02:21:11;;;;;;;10.50;8.50;;;;;;;13.03;70.57;102428.50;5112016;28;20054;-40
2021/05/31 02:23:39;;;;;;;13.00;9.00;;;;;;;12.84;71.48;102432.03;5111858;28;20047;-39
2021/05/31 02:26:05;;;;;;;11.02;8.57;;;;;;;12.81;72.07;102427.03;5111624;28;20031;-40
2021/05/31 02:28:30;;;;;;;13.52;9.68;;;;;;;12.82;71.58;102431.41;5111608;28;20039;-40
2021/05/31 02:30:56;;;;;;;18.90;10.75;;;;;;;12.79;72.50;102434.53;5111951;28;20371;-39
2021/05/31 02:33:25;;;;;;;11.30;8.32;;;;;;;12.73;71.97;102424.50;5111431;28;20032;-40
2021/05/31 02:35:51;;;;;;;11.82;8.88;;;;;;;12.73;72.13;102432.63;5111930;28;20081;-40
2021/05/31 02:38:17;;;;;;;14.65;9.57;;;;;;;12.73;72.37;102429.91;5111490;28;20594;-40
2021/05/31 02:40:43;;;;;;;15.27;9.82;;;;;;;12.76;72.52;102426.81;5111724;28;20024;-40
2021/05/31 02:43:11;;;;;;;13.52;9.18;;;;;;;12.79;72.04;102434.53;5111560;28;20434;-40
2021/05/31 02:45:37;;;;;;;13.68;9.48;;;;;;;12.67;72.72;102433.47;5111712;28;20035;-40
2021/05/31 02:48:04;;;;;;;14.15;9.32;;;;;;;12.67;72.65;102430.75;5111280;28;20051;-40
2021/05/31 02:50:30;;;;;;;13.45;10.00;;;;;;;12.54;73.00;102443.28;5111814;28;20032;-40
2021/05/31 02:52:57;;;;;;;12.05;8.95;;;;;;;12.59;72.40;102432.63;5111231;28;20483;-40
2021/05/31 02:55:24;;;;;;;11.02;9.10;;;;;;;12.66;72.51;102434.53;5124668;28;20042;-40
2021/05/31 02:57:50;;;;;;;12.00;9.80;;;;;;;12.57;72.83;102431.16;5133931;27;20544;-40
2021/05/31 03:00:17;;;;;;;10.65;9.18;;;;;;;12.54;72.65;102437.84;5134526;27;20053;-40
2021/05/31 03:02:44;;;;;;;11.50;9.05;;;;;;;12.51;73.61;102434.69;5134178;27;20061;-40
2021/05/31 03:05:16;;;;;;;15.00;10.07;;;;;;;12.42;73.83;102428.63;5133803;27;20065;-40
2021/05/31 03:07:42;;;;;;;14.43;9.85;;;;;;;12.44;73.94;102434.66;5133837;27;20467;-40
2021/05/31 03:10:08;;;;;;;14.02;9.57;;;;;;;12.43;73.40;102432.16;5134433;27;20062;-40
2021/05/31 03:12:34;;;;;;;12.73;9.82;;;;;;;12.48;73.11;102426.94;5137720;27;20083;-40
2021/05/31 03:15:00;;;;;;;12.75;10.20;;;;;;;12.51;73.50;102430.09;5138500;27;20023;-40
2021/05/31 03:17:25;;;;;;;14.67;10.23;;;;;;;12.54;73.20;102429.69;5137876;27;20106;-39
2021/05/31 03:19:50;;;;;;;11.30;9.63;;;;;;;12.47;73.65;102423.41;5137630;27;20284;-40
2021/05/31 03:22:16;;;;;;;13.10;11.20;;;;;;;12.30;74.50;102424.84;5138412;27;20023;-40
2021/05/31 03:24:42;;;;;;;12.82;10.60;;;;;;;12.33;74.19;102436.09;5138606;27;20080;-40
2021/05/31 03:27:08;;;;;;;15.82;10.38;;;;;;;12.30;74.58;102428.38;5137553;27;20443;-40
2021/05/31 03:29:33;;;;;;;12.88;10.57;;;;;;;12.21;74.53;102432.31;5138251;27;20023;-40
2021/05/31 03:31:59;;;;;;;14.73;11.03;;;;;;;12.12;74.88;102425.41;5137811;27;20023;-40
2021/05/31 03:34:24;;;;;;;12.02;9.70;;;;;;;12.24;74.61;102439.19;5137929;27;20035;-40
2021/05/31 03:36:50;;;;;;;13.77;10.87;;;;;;;12.24;74.48;102437.31;5137882;27;20067;-40
2021/05/31 03:39:15;;;;;;;13.40;10.83;;;;;;;12.23;74.78;102435.66;5138112;27;20134;-39
2021/05/31 03:41:41;;;;;;;12.65;10.27;;;;;;;12.14;74.95;102436.03;5137459;27;20092;-40
2021/05/31 03:44:07;;;;;;;14.65;10.75;;;;;;;12.02;75.52;102433.91;5137712;27;20039;-40
2021/05/31 03:46:32;;;;;;;13.15;11.07;;;;;;;12.10;74.81;102438.31;5138445;27;20352;-39
2021/05/31 03:48:58;;;;;;;13.70;10.87;;;;;;;12.14;74.77;102438.75;5137563;27;20031;-39
2021/05/31 03:51:23;;;;;;;13.20;10.73;;;;;;;12.17;75.03;102441.06;5138125;27;20315;-40
2021/05/31 03:53:49;;;;;;;16.10;11.32;;;;;;;12.05;75.48;102444.34;5137169;27;20098;-40
2021/05/31 03:56:14;;;;;;;13.53;10.43;;;;;;;12.10;75.12;102441.88;5138046;27;20023;-39
2021/05/31 03:58:42;;;;;;;14.15;11.00;;;;;;;11.98;75.69;102440.75;5137601;27;20023;-40
2021/05/31 04:01:08;;;;;;;15.43;11.63;;;;;;;12.01;75.90;102439.53;5137751;27;20455;-40
2021/05/31 04:03:35;;;;;;;13.52;11.48;;;;;;;12.03;75.53;102434.75;5137232;27;20035;-40
2021/05/31 04:11:38;;;;;;;14.50;11.40;;;;;;;12.04;75.98;102442.66;5137756;27;20066;-40
2021/05/31 04:14:18;;;;;;;18.00;12.57;;;;;;;11.99;76.40;102444.31;5137521;27;20371;-40
2021/05/31 04:16:49;;;;;;;20.35;12.27;;;;;;;11.94;76.84;102446.78;5137653;27;20160;-40
2021/05/31 04:19:16;;;;;;;14.55;11.65;;;;;;;12.02;75.88;102450.16;5136991;27;20027;-40
2021/05/31 04:21:45;;;;;;;15.70;12.05;;;;;;;11.96;76.26;102445.56;5135823;27;20039;-40
2021/05/31 04:24:11;;;;;;;17.25;12.05;;;;;;;11.98;76.50;102435.34;5137605;27;20119;-39
2021/05/31 04:26:37;;;;;;;15.77;12.52;;;;;;;12.04;76.68;102444.53;5136876;27;20110;-40
2021/05/31 04:29:05;;;;;;;16.50;13.25;;;;;;;12.07;76.22;102439.56;5137238;27;20561;-40
2021/05/31 04:31:31;;;;;;;15.48;12.40;;;;;;;12.11;77.11;102437.28;5136514;27;20493;-39
2021/05/31 04:33:57;;;;;;;15.85;12.52;;;;;;;12.10;76.88;102436.44;5136343;27;20111;-40
2021/05/31 04:36:23;;;;;;;13.45;11.68;;;;;;;12.24;77.22;102442.75;5136403;27;20110;-40
2021/05/31 04:38:48;;;;;;;15.43;12.38;;;;;;;12.41;76.60;102431.53;5136331;27;20031;-40
2021/05/31 04:41:13;;;;;;;18.03;12.10;;;;;;;12.47;76.42;102428.84;5136622;27;20023;-39
2021/05/31 04:43:39;;;;;;;18.23;13.00;;;;;;;12.49;76.15;102434.91;5136545;27;20037;-40
2021/05/31 04:46:04;;;;;;;15.45;12.18;;;;;;;12.56;76.26;102435.75;5136879;27;20340;-40
2021/05/31 04:48:31;;;;;;;16.70;13.33;;;;;;;12.54;75.83;102436.97;5136503;27;20033;-40
2021/05/31 04:50:57;;;;;;;16.13;13.48;;;;;;;12.65;75.34;102438.28;5136967;27;20118;-40
2021/05/31 04:53:26;;;;;;;15.30;12.93;;;;;;;12.70;75.75;102430.34;5136393;27;20378;-39
2021/05/31 04:55:54;;;;;;;15.23;12.20;;;;;;;12.84;75.89;102438.31;5135948;27;20031;-40
2021/05/31 04:58:20;;;;;;;16.88;12.57;;;;;;;12.88;75.65;102438.72;5136480;27;20031;-40
2021/05/31 05:00:46;;;;;;;16.05;12.43;;;;;;;13.01;74.68;102432.47;5136311;27;20023;-40
2021/05/31 05:03:11;;;;;;;14.70;13.10;;;;;;;13.07;74.68;102437.88;5136507;27;20028;-40
2021/05/31 05:05:37;;;;;;;16.73;12.73;;;;;;;13.13;74.87;102423.50;5137017;27;20276;-40
2021/05/31 05:08:02;;;;;;;14.98;12.93;;;;;;;13.23;74.94;102430.41;5136390;27;20031;-40
2021/05/31 05:10:28;;;;;;;15.05;12.38;;;;;;;13.44;74.41;102424.72;5134891;27;20054;-40
2021/05/31 05:12:53;;;;;;;17.63;12.53;;;;;;;13.50;73.86;102420.34;5135976;27;20179;-40
2021/05/31 05:15:21;;;;;;;19.58;13.02;;;;;;;13.63;73.93;102432.00;5136268;27;20099;-40
2021/05/31 05:17:48;;;;;;;18.75;14.05;;;;;;;13.51;73.22;102427.44;5135830;27;20079;-40
2021/05/31 05:20:15;;;;;;;17.25;12.98;;;;;;;13.67;73.55;102424.28;5135664;27;20501;-40
2021/05/31 05:22:41;;;;;;;15.02;12.60;;;;;;;13.70;72.86;102421.13;5135793;27;20027;-39
2021/05/31 05:25:07;;;;;;;17.77;12.98;;;;;;;13.70;72.64;102425.72;5135735;27;20126;-40
2021/05/31 05:27:33;;;;;;;15.95;13.45;;;;;;;13.75;73.80;102421.31;5135634;27;20106;-40
2021/05/31 05:29:58;;;;;;;16.00;13.20;;;;;;;13.76;73.03;102427.56;5135592;27;20113;-40
2021/05/31 05:32:24;;;;;;;16.73;13.00;;;;;;;13.88;72.76;102431.31;5136379;27;20019;-40
2021/05/31 05:34:51;;;;;;;15.13;13.13;;;;;;;13.97;72.32;102416.44;5135286;27;20249;-40
2021/05/31 05:37:31;;;;;;;13.70;11.85;;;;;;;14.06;72.72;102430.63;5135385;27;20031;-40
2021/05/31 05:47:47;;;;;;;15.27;13.10;;;;;;;14.13;72.36;102418.66;5135299;27;20035;-40
2021/05/31 05:50:17;;;;;;;18.90;13.27;;;;;;;14.17;72.05;102425.34;5135811;27;20031;-40
2021/05/31 05:52:43;;;;;;;19.52;14.02;;;;;;;14.19;71.55;102422.38;5135581;27;20031;-40
2021/05/31 05:55:10;;;;;;;15.70;13.70;;;;;;;14.30;72.12;102423.59;5135483;27;20466;-40
2021/05/31 05:57:36;;;;;;;18.58;13.68;;;;;;;14.25;71.45;102413.38;5135076;27;20019;-40
2021/05/31 06:00:06;;;;;;;16.30;13.10;;;;;;;14.37;71.37;102419.78;5135657;27;20049;-40
2021/05/31 06:02:31;;;;;;;17.85;13.15;;;;;;;14.50;71.00;102409.94;5134704;27;20479;-40
2021/05/31 06:04:57;;;;;;;23.87;14.60;;;;;;;14.60;71.36;102418.44;5135498;27;20026;-40
2021/05/31 06:07:22;;;;;;;16.85;13.82;;;;;;;14.70;70.49;102409.78;5134605;27;20075;-40
2021/05/31 06:09:47;;;;;;;17.17;12.73;;;;;;;14.87;70.56;102416.34;5135400;27;20053;-40
2021/05/31 06:12:13;;;;;;;16.67;12.47;;;;;;;14.95;69.07;102413.34;5134988;27;20604;-40
2021/05/31 06:14:38;;;;;;;17.10;13.33;;;;;;;14.98;69.72;102407.44;5134944;27;20027;-40
2021/05/31 06:17:03;;;;;;;17.37;12.70;;;;;;;15.14;69.67;102417.81;5135059;27;20265;-40
2021/05/31 06:19:30;;;;;;;19.65;13.40;;;;;;;15.24;69.28;102422.75;5135126;27;20106;-40
2021/05/31 06:21:55;;;;;;;21.20;14.02;;;;;;;15.35;69.71;102408.38;5134867;27;20027;-40
2021/05/31 06:24:20;;;;;;;18.95;13.48;;;;;;;15.36;68.10;102409.19;5134727;27;20424;-40
2021/05/31 06:26:46;;;;;;;19.00;12.63;;;;;;;15.45;67.65;102411.41;5134665;27;20027;-40
2021/05/31 06:29:11;;;;;;;17.43;11.97;;;;;;;15.53;66.93;102407.56;5134885;27;20038;-40
2021/05/31 06:31:37;;;;;;;15.35;13.35;;;;;;;15.63;66.78;102402.47;5135294;27;20268;-40
2021/05/31 06:34:03;;;;;;;14.00;11.98;;;;;;;15.74;66.68;102405.47;5133688;27;20031;-40
2021/05/31 06:36:30;;;;;;;16.35;13.07;;;;;;;15.77;66.16;102405.03;5134551;27;20374;-40
2021/05/31 06:38:55;;;;;;;14.82;12.50;;;;;;;15.86;66.50;102400.91;5134481;27;20073;-40
2021/05/31 06:41:20;;;;;;;17.13;13.60;;;;;;;15.90;64.36;102397.50;5134276;27;20057;-40
2021/05/31 06:43:46;;;;;;;17.17;12.07;;;;;;;16.05;64.17;102390.81;5134132;27;20398;-40
2021/05/31 06:46:11;;;;;;;15.10;12.10;;;;;;;16.19;64.97;102395.88;5133509;27;20023;-40
2021/05/31 06:48:36;;;;;;;18.42;12.23;;;;;;;16.25;64.45;102401.47;5134316;27;20168;-40
2021/05/31 06:51:02;;;;;;;16.27;12.23;;;;;;;16.18;63.27;102396.94;5134708;27;20019;-40
2021/05/31 06:53:28;;;;;;;;;;;;;;;16.33;64.38;102401.16;5134441;28;20491;-40
2021/05/31 06:55:53;;;;;;;16.25;11.90;;;;;;;16.34;64.15;102395.44;5133886;28;20369;-40
2021/05/31 06:58:18;;;;;;;15.23;12.13;;;;;;;16.42;63.79;102397.88;5134267;28;20121;-40
2021/05/31 07:00:47;;;;;;;14.20;11.93;;;;;;;16.41;61.81;102389.91;5135097;28;20039;-40
2021/05/31 07:03:13;;;;;;;14.90;11.40;;;;;;;16.46;62.17;102390.06;5134180;28;20023;-40
2021/05/31 07:05:38;;;;;;;16.23;12.60;;;;;;;16.40;61.23;102385.53;5135026;28;20091;-40
2021/05/31 07:08:03;;;;;;;;;;;;;;;16.57;62.48;102389.25;5134242;28;20102;-40
2021/05/31 07:10:29;;;;;;;14.27;11.40;;;;;;;16.69;62.25;102386.56;5134598;28;19915;-40
2021/05/31 07:12:56;;;;;;;16.35;12.80;;;;;;;16.64;61.77;102378.19;5134092;27;20088;-40
2021/05/31 07:15:21;;;;;;;;;;;;;;;16.82;60.88;102389.09;5134572;28;20486;-41
2021/05/31 07:17:47;;;;;;;13.88;12.25;;;;;;;16.75;60.59;102390.28;5134354;28;19923;-40
2021/05/31 07:20:15;;;;;;;16.02;11.88;;;;;;;16.80;61.55;102390.41;5134390;28;20027;-40
2021/05/31 07:22:43;;;;;;;16.02;12.25;;;;;;;16.83;61.31;102381.72;5133733;28;20407;-40
2021/05/31 07:25:11;;;;;;;15.38;11.75;;;;;;;16.88;61.71;102387.31;5134638;28;20028;-40
2021/05/31 07:27:37;;;;;;;15.15;11.95;;;;;;;16.97;61.64;102388.63;5133921;28;20031;-40
2021/05/31 07:30:05;;;;;;;15.75;12.40;;;;;;;17.08;60.81;102378.75;5133951;28;20027;-40
2021/05/31 07:32:30;;;;;;;12.30;10.90;;;;;;;17.12;58.65;102386.25;5133757;28;20092;-40
2021/05/31 07:34:56;;;;;;;14.00;10.23;;;;;;;17.25;58.57;102379.72;5133666;28;20031;-40
2021/05/31 07:37:22;;;;;;;;;;;;;;;17.44;60.25;102380.44;5133226;28;20063;-40
2021/05/31 07:39:47;;;;;;;15.50;11.63;;;;;;;17.35;59.26;102373.66;5133646;28;19951;-40
2021/05/31 07:42:12;;;;;;;15.50;11.02;;;;;;;17.43;56.97;102379.59;5134182;28;20023;-40
2021/05/31 07:44:38;;;;;;;13.57;10.23;;;;;;;17.53;58.76;102373.53;5134217;28;20482;-40
2021/05/31 07:47:03;;;;;;;;;;;;;;;17.66;58.13;102369.69;5134309;28;20079;-40
2021/05/31 07:49:29;;;;;;;14.57;10.82;;;;;;;17.74;57.58;102377.56;5134412;28;19907;-40
2021/05/31 07:51:55;;;;;;;13.98;10.90;;;;;;;17.70;58.67;102373.59;5133800;28;20451;-41
2021/05/31 07:54:23;;;;;;;13.50;11.88;;;;;;;17.77;59.11;102366.13;5133380;28;20148;-40
2021/05/31 07:56:49;;;;;;;15.48;10.85;;;;;;;17.93;57.73;102367.25;5134137;27;20475;-40
2021/05/31 07:59:15;;;;;;;13.00;10.50;;;;;;;17.99;56.51;102361.63;5137789;27;20104;-40
2021/05/31 08:01:40;;;;;;;12.52;10.05;;;;;;;18.07;56.20;102360.44;5137708;27;20059;-40
2021/05/31 08:04:06;;;;;;;;;;;;;;;18.26;57.12;102359.16;5137525;27;20023;-40
2021/05/31 08:06:35;;;;;;;12.68;9.55;;;;;;;18.30;56.77;102359.50;5138183;27;19907;-41
2021/05/31 08:09:02;;;;;;;12.43;8.88;;;;;;;18.41;53.63;102366.00;5137337;27;20035;-40
2021/05/31 08:11:28;;;;;;;11.45;8.60;;;;;;;18.51;54.59;102355.22;5137846;27;20493;-40
2021/05/31 08:13:54;;;;;;;10.63;8.35;;;;;;;18.74;54.79;102365.22;5137404;27;20023;-40
2021/05/31 08:16:19;;;;;;;;;;;;;;;18.86;55.58;102360.47;5138528;27;20027;-40
2021/05/31 08:18:45;;;;;;;13.38;8.95;;;;;;;18.83;53.74;102354.66;5137135;27;19914;-40
2021/05/31 08:21:11;;;;;;;;;;;;;;;19.04;54.13;102359.38;5137843;27;20456;-40
2021/05/31 08:23:37;;;;;;;10.02;8.10;;;;;;;18.96;52.45;102357.06;5137030;27;19941;-40
2021/05/31 08:26:02;;;;;;;;;;;;;;;19.16;53.61;102362.03;5137158;27;20072;-39
2021/05/31 08:28:27;;;;;;;9.95;8.60;;;;;;;19.07;49.66;102353.38;5137461;27;19922;-39
2021/05/31 08:30:52;;;;;;;;;;;;;;;19.30;53.29;102357.84;5137905;27;20035;-40
2021/05/31 08:33:18;;;;;;;12.33;8.47;;;;;;;19.35;51.67;102362.56;5136896;27;19911;-40
2021/05/31 08:35:43;;;;;;;;;;;;;;;19.47;53.95;102360.53;5137838;27;20732;-39
2021/05/31 08:38:09;;;;;;;9.32;6.38;;;;;;;19.46;48.32;102356.13;5136758;27;19914;-40
2021/05/31 08:40:34;;;;;;;;;;;;;;;19.70;51.04;102354.81;5137126;27;20031;-39
2021/05/31 08:43:00;;;;;;;9.60;6.43;;;;;;;19.79;48.74;102349.72;5136645;27;19908;-39
2021/05/31 08:45:28;;;;;;;;;;;;;;;20.05;50.38;102339.84;5137072;27;20479;-40
2021/05/31 08:47:56;;;;;;;8.93;7.13;;;;;;;19.93;48.39;102344.66;5136554;27;20325;-40
2021/05/31 08:50:27;;;;;;;7.82;5.93;;;;;;;20.12;48.16;102351.47;5136526;27;20027;-39
2021/05/31 08:52:53;;;;;;;9.68;6.47;;;;;;;20.20;46.94;102344.66;5136626;27;20027;-39
2021/05/31 08:55:21;;;;;;;7.90;5.78;;;;;;;20.32;47.17;102334.38;5136695;27;20366;-40
2021/05/31 08:57:49;;;;;;;7.95;5.70;;;;;;;20.42;46.42;102336.38;5136893;27;20030;-39
2021/05/31 09:00:17;;;;;;;6.15;4.85;;;;;;;20.35;44.81;102341.25;5136496;27;20023;-40
2021/05/31 09:02:42;;;;;;;6.72;4.95;;;;;;;20.37;45.45;102330.84;5135380;27;20045;-40
2021/05/31 09:05:08;;;;;;;;;;;;;;;20.59;44.70;102337.09;5137008;27;20027;-40
2021/05/31 09:07:34;;;;;;;5.78;3.40;;;;;;;20.75;42.91;102333.41;5136146;27;19911;-40
2021/05/31 09:09:59;;;;;;;;;;;;;;;20.89;43.92;102330.19;5134242;27;20077;-40
2021/05/31 09:12:38;;;;;;;6.50;3.45;;;;;;;20.66;43.08;102323.16;5136078;27;19911;-40
2021/05/31 09:15:10;;;;;;;5.75;4.00;;;;;;;20.85;42.05;102320.81;5136955;27;20066;-40
2021/05/31 09:17:37;;;;;;;6.65;3.88;;;;;;;20.83;41.60;102327.38;5136628;27;20031;-40
2021/05/31 09:20:05;;;;;;;6.60;3.42;;;;;;;20.83;41.72;102315.56;5136778;27;20023;-40
2021/05/31 09:22:30;;;;;;;6.30;4.15;;;;;;;21.02;43.44;102318.72;5135497;27;20035;-40
2021/05/31 09:25:00;;;;;;;;;;;;;;;21.19;42.49;102319.38;5136703;27;20031;-40
2021/05/31 09:27:27;;;;;;;7.57;4.15;;;;;;;21.08;40.13;102314.91;5136918;27;19973;-40
2021/05/31 09:30:01;;;;;;;5.38;3.38;;;;;;;21.14;41.34;102315.78;5136570;27;20060;-40
2021/05/31 09:32:27;;;;;;;5.75;4.03;;;;;;;21.28;41.61;102306.78;5135626;27;20374;-40
2021/05/31 09:35:11;;;;;;;7.50;3.40;;;;;;;21.22;39.97;102316.06;5135663;27;20034;-40
2021/05/31 09:37:49;;;;;;;7.00;4.40;;;;;;;21.33;41.43;102311.50;5135899;27;20046;-40
2021/05/31 09:40:21;;;;;;;7.10;3.40;;;;;;;21.45;40.63;102306.59;5135617;27;20034;-40
2021/05/31 09:42:51;;;;;;;6.32;3.22;;;;;;;21.43;40.09;102295.03;5136340;27;20570;-40
2021/05/31 09:45:17;;;;;;;6.88;4.18;;;;;;;21.57;40.32;102306.38;5135498;27;20026;-40
2021/05/31 09:47:43;;;;;;;4.72;3.13;;;;;;;21.59;42.00;102307.75;5135375;27;20034;-40
2021/05/31 09:50:09;;;;;;;;;;;;;;;21.87;40.58;102300.13;5136316;27;20094;-40
2021/05/31 09:52:35;;;;;;;5.85;3.40;;;;;;;21.81;39.04;102293.81;5135793;27;19964;-40
2021/05/31 09:55:03;;;;;;;5.80;3.13;;;;;;;21.90;38.41;102296.00;5135568;27;20027;-40
2021/05/31 09:57:30;;;;;;;4.95;3.10;;;;;;;22.02;40.31;102285.56;5135225;27;20156;-40
2021/05/31 10:00:12;;;;;;;7.72;3.42;;;;;;;22.18;40.29;102284.50;5134929;27;20023;-40
2021/05/31 10:03:14;;;;;;;6.85;3.53;;;;;;;22.23;39.80;102278.19;5135092;27;20041;-40
2021/05/31 10:10:41;;;;;;;5.22;3.13;;;;;;;22.30;39.10;102279.56;5135115;27;20051;-40
2021/05/31 10:13:06;;;;;;;5.45;3.15;;;;;;;22.18;38.83;102280.94;5134889;27;20080;-40
2021/05/31 10:15:40;;;;;;;6.90;2.97;;;;;;;22.20;37.69;102279.53;5135226;27;20028;-40
2021/05/31 10:18:10;;;;;;;6.13;2.97;;;;;;;22.16;37.45;102278.47;5135114;27;20071;-40
2021/05/31 10:20:37;;;;;;;4.70;2.70;;;;;;;22.25;38.79;102271.31;5135214;27;20427;-40
2021/05/31 10:23:04;;;;;;;6.03;3.33;;;;;;;22.35;37.24;102270.44;5134706;27;20390;-40
2021/05/31 10:25:31;;;;;;;5.25;2.97;;;;;;;22.41;37.45;102268.53;5135317;27;20036;-40
2021/05/31 10:28:11;;;;;;;4.65;2.20;;;;;;;22.55;35.46;102275.97;5134361;27;20117;-40
2021/05/31 10:30:52;;;;;;;3.22;2.10;;;;;;;22.74;37.73;102265.19;5133648;27;20027;-40
2021/05/31 10:33:23;;;;;;;4.05;2.53;;;;;;;22.69;35.78;102270.69;5135300;27;20349;-40
2021/05/31 10:35:50;;;;;;;4.22;2.75;;;;;;;22.78;36.39;102266.28;5134582;27;20031;-40
2021/05/31 10:38:20;;;;;;;4.88;2.80;;;;;;;22.80;36.30;102261.31;5134746;27;20085;-40
2021/05/31 10:40:54;;;;;;;4.38;2.65;;;;;;;22.83;36.81;102259.91;5135279;27;20080;-40
2021/05/31 10:43:25;;;;;;;5.50;2.78;;;;;;;23.03;37.26;102251.63;5134478;27;20023;-40
2021/05/31 10:46:01;;;;;;;4.30;2.80;;;;;;;23.01;37.69;102261.28;5134685;27;20059;-40
2021/05/31 10:48:27;;;;;;;3.45;2.40;;;;;;;23.16;35.96;102255.72;5134418;27;20114;-40
2021/05/31 10:50:58;;;;;;;3.15;1.98;;;;;;;23.26;34.83;102250.16;5134894;27;20070;-40
2021/05/31 10:53:27;;;;;;;3.65;1.98;;;;;;;23.21;34.56;102255.69;5134287;27;20110;-40
2021/05/31 10:56:12;;;;;;;4.90;2.55;;;;;;;23.01;36.41;102255.78;5134305;27;20585;-40
2021/05/31 10:58:47;;;;;;;5.50;2.33;;;;;;;22.84;35.09;102251.38;5134567;27;20049;-40
2021/05/31 11:01:20;;;;;;;6.22;2.50;;;;;;;23.03;35.15;102248.03;5132935;28;20062;-40
2021/05/31 11:03:52;;;;;;;6.10;2.45;;;;;;;23.04;34.92;102244.19;5134559;27;20080;-40
2021/05/31 11:06:20;;;;;;;5.50;2.83;;;;;;;23.03;35.52;102248.03;5135049;27;20384;-40
2021/05/31 11:08:48;;;;;;;4.75;2.53;;;;;;;23.15;35.21;102228.41;5134657;27;20067;-40
2021/05/31 11:11:23;;;;;;;4.45;2.60;;;;;;;23.26;34.45;102230.84;5134599;27;20137;-40
2021/05/31 11:13:50;;;;;;;3.22;1.85;;;;;;;23.54;35.69;102225.72;5134338;27;20048;-40
2021/05/31 11:16:17;;;;;;;4.20;2.17;;;;;;;23.71;33.95;102219.84;5134948;27;20059;-40
2021/05/31 11:18:45;;;;;;;4.18;2.58;;;;;;;23.72;34.09;102222.34;5134649;27;20058;-40
2021/05/31 11:21:23;;;;;;;5.32;2.55;;;;;;;23.85;36.23;102221.69;5134662;27;20031;-40
2021/05/31 11:23:56;;;;;;;3.67;2.28;;;;;;;23.48;35.47;102222.19;5134082;27;20408;-40
2021/05/31 11:26:21;;;;;;;3.90;2.40;;;;;;;23.21;35.37;102216.25;5134048;27;20034;-40
2021/05/31 11:28:47;;;;;;;4.00;2.38;;;;;;;23.18;34.40;102214.03;5133611;27;20031;-40
2021/05/31 11:31:12;;;;;;;8.68;3.15;;;;;;;23.07;33.98;102213.25;5134089;27;20059;-40
2021/05/31 11:33:38;;;;;;;3.90;2.60;;;;;;;23.30;37.27;102218.13;5137324;27;20445;-40
2021/05/31 11:36:04;;;;;;;4.22;2.95;;;;;;;23.31;36.55;102214.25;5138484;27;20049;-40
2021/05/31 11:38:30;;;;;;;3.80;2.53;;;;;;;23.41;36.05;102204.28;5137524;27;20019;-41
2021/05/31 11:40:55;;;;;;;5.32;2.70;;;;;;;23.55;38.88;102197.84;5137866;27;20101;-41
2021/05/31 11:43:21;;;;;;;5.05;3.10;;;;;;;23.46;35.89;102194.03;5137683;27;20034;-39